sensor_id;sensor_type;location;lat;lon;timestamp;temperature;humidity
4725;DHT22;2376;53.544;10.226;2023-06-10T00:02:26;14.10;99.90
4725;DHT22;2376;53.544;10.226;2023-06-10T00:04:52;14.10;99.90
4725;DHT22;2376;53.544;10.226;2023-06-10T00:07:19;14.20;99.90
4725;DHT22;2376;53.544;10.226;2023-06-10T00:09:46;14.20;99.90
4725;DHT22;2376;53.544;10.226;2023-06-10T00:12:12;14.10;99.90
4725;DHT22;2376;53.544;10.226;2023-06-10T00:14:40;14.10;99.90
4725;DHT22;2376;53.544;10.226;2023-06-10T00:17:08;14.00;99.90
4725;DHT22;2376;53.544;10.226;2023-06-10T00:19:35;13.90;99.90
4725;DHT22;2376;53.544;10.226;2023-06-10T00:22:02;13.80;99.90
4725;DHT22;2376;53.544;10.226;2023-06-10T00:24:30;13.60;99.90
4725;DHT22;2376;53.544;10.226;2023-06-10T00:26:56;13.70;99.90
4725;DHT22;2376;53.544;10.226;2023-06-10T00:29:23;13.70;99.90
4725;DHT22;2376;53.544;10.226;2023-06-10T00:31:50;13.60;99.90
4725;DHT22;2376;53.544;10.226;2023-06-10T00:34:20;13.70;99.90
4725;DHT22;2376;53.544;10.226;2023-06-10T00:36:47;13.50;99.90
4725;DHT22;2376;53.544;10.226;2023-06-10T00:39:14;13.60;99.90
4725;DHT22;2376;53.544;10.226;2023-06-10T00:41:40;13.60;99.90
4725;DHT22;2376;53.544;10.226;2023-06-10T00:44:07;13.50;99.90
4725;DHT22;2376;53.544;10.226;2023-06-10T00:46:34;13.50;99.90
4725;DHT22;2376;53.544;10.226;2023-06-10T00:49:01;13.40;99.90
4725;DHT22;2376;53.544;10.226;2023-06-10T00:51:29;13.40;99.90
4725;DHT22;2376;53.544;10.226;2023-06-10T00:53:56;13.40;99.90
4725;DHT22;2376;53.544;10.226;2023-06-10T00:56:23;13.40;99.90
4725;DHT22;2376;53.544;10.226;2023-06-10T00:58:50;13.40;99.90
4725;DHT22;2376;53.544;10.226;2023-06-10T01:01:17;13.20;99.90
4725;DHT22;2376;53.544;10.226;2023-06-10T01:03:45;13.10;99.90
4725;DHT22;2376;53.544;10.226;2023-06-10T01:06:19;13.10;99.90
4725;DHT22;2376;53.544;10.226;2023-06-10T01:08:53;13.10;99.90
4725;DHT22;2376;53.544;10.226;2023-06-10T01:11:25;13.10;99.90
4725;DHT22;2376;53.544;10.226;2023-06-10T01:13:56;13.10;99.90
4725;DHT22;2376;53.544;10.226;2023-06-10T01:16:25;13.00;99.90
4725;DHT22;2376;53.544;10.226;2023-06-10T01:18:52;12.90;99.90
4725;DHT22;2376;53.544;10.226;2023-06-10T01:21:22;12.90;99.90
4725;DHT22;2376;53.544;10.226;2023-06-10T01:23:50;12.90;99.90
4725;DHT22;2376;53.544;10.226;2023-06-10T01:26:18;12.90;99.90
4725;DHT22;2376;53.544;10.226;2023-06-10T01:28:50;13.00;99.90
4725;DHT22;2376;53.544;10.226;2023-06-10T01:31:28;13.10;99.90
4725;DHT22;2376;53.544;10.226;2023-06-10T01:34:00;13.20;99.90
4725;DHT22;2376;53.544;10.226;2023-06-10T01:36:29;13.10;99.90
4725;DHT22;2376;53.544;10.226;2023-06-10T01:38:58;13.10;99.90
4725;DHT22;2376;53.544;10.226;2023-06-10T01:41:26;13.00;99.90
4725;DHT22;2376;53.544;10.226;2023-06-10T01:43:54;12.90;99.90
4725;DHT22;2376;53.544;10.226;2023-06-10T01:46:21;12.90;99.90
4725;DHT22;2376;53.544;10.226;2023-06-10T01:48:48;12.90;99.90
4725;DHT22;2376;53.544;10.226;2023-06-10T01:51:15;12.80;99.90
4725;DHT22;2376;53.544;10.226;2023-06-10T01:53:43;12.70;99.90
4725;DHT22;2376;53.544;10.226;2023-06-10T01:56:09;12.60;99.90
4725;DHT22;2376;53.544;10.226;2023-06-10T01:58:42;12.60;99.90
4725;DHT22;2376;53.544;10.226;2023-06-10T02:01:09;12.50;99.90
4725;DHT22;2376;53.544;10.226;2023-06-10T02:03:35;12.60;99.90
4725;DHT22;2376;53.544;10.226;2023-06-10T02:06:02;12.50;99.90
4725;DHT22;2376;53.544;10.226;2023-06-10T02:08:29;12.40;99.90
4725;DHT22;2376;53.544;10.226;2023-06-10T02:10:57;12.40;99.90
4725;DHT22;2376;53.544;10.226;2023-06-10T02:13:23;12.50;99.90
4725;DHT22;2376;53.544;10.226;2023-06-10T02:15:50;12.50;99.90
4725;DHT22;2376;53.544;10.226;2023-06-10T02:18:19;12.60;99.90
4725;DHT22;2376;53.544;10.226;2023-06-10T02:20:46;12.60;99.90
4725;DHT22;2376;53.544;10.226;2023-06-10T02:23:12;12.40;99.90
4725;DHT22;2376;53.544;10.226;2023-06-10T02:25:39;12.30;99.90
4725;DHT22;2376;53.544;10.226;2023-06-10T02:28:07;12.30;99.90
4725;DHT22;2376;53.544;10.226;2023-06-10T02:30:34;12.50;99.90
4725;DHT22;2376;53.544;10.226;2023-06-10T02:33:01;12.40;99.90
4725;DHT22;2376;53.544;10.226;2023-06-10T02:35:27;12.40;99.90
4725;DHT22;2376;53.544;10.226;2023-06-10T02:37:54;12.30;99.90
4725;DHT22;2376;53.544;10.226;2023-06-10T02:40:21;12.30;99.90
4725;DHT22;2376;53.544;10.226;2023-06-10T02:42:47;12.20;99.90
4725;DHT22;2376;53.544;10.226;2023-06-10T02:45:15;12.30;99.90
4725;DHT22;2376;53.544;10.226;2023-06-10T02:47:42;12.40;99.90
4725;DHT22;2376;53.544;10.226;2023-06-10T02:50:09;12.50;99.90
4725;DHT22;2376;53.544;10.226;2023-06-10T02:52:36;12.40;99.90
4725;DHT22;2376;53.544;10.226;2023-06-10T02:55:03;12.30;99.90
4725;DHT22;2376;53.544;10.226;2023-06-10T02:57:29;12.30;99.90
4725;DHT22;2376;53.544;10.226;2023-06-10T02:59:56;12.30;99.90
4725;DHT22;2376;53.544;10.226;2023-06-10T03:02:25;12.30;99.90
4725;DHT22;2376;53.544;10.226;2023-06-10T03:04:54;12.50;99.90
4725;DHT22;2376;53.544;10.226;2023-06-10T03:07:20;12.50;99.90
4725;DHT22;2376;53.544;10.226;2023-06-10T03:09:48;12.50;99.90
4725;DHT22;2376;53.544;10.226;2023-06-10T03:12:15;12.50;99.90
4725;DHT22;2376;53.544;10.226;2023-06-10T03:14:42;12.50;99.90
4725;DHT22;2376;53.544;10.226;2023-06-10T03:17:08;12.40;99.90
4725;DHT22;2376;53.544;10.226;2023-06-10T03:19:36;12.40;99.90
4725;DHT22;2376;53.544;10.226;2023-06-10T03:22:08;12.40;99.90
4725;DHT22;2376;53.544;10.226;2023-06-10T03:24:35;12.30;99.90
4725;DHT22;2376;53.544;10.226;2023-06-10T03:27:06;12.30;99.90
4725;DHT22;2376;53.544;10.226;2023-06-10T03:29:33;12.30;99.90
4725;DHT22;2376;53.544;10.226;2023-06-10T03:32:00;12.40;99.90
4725;DHT22;2376;53.544;10.226;2023-06-10T03:34:26;12.50;99.90
4725;DHT22;2376;53.544;10.226;2023-06-10T03:36:54;12.40;99.90
4725;DHT22;2376;53.544;10.226;2023-06-10T03:39:21;12.40;99.90
4725;DHT22;2376;53.544;10.226;2023-06-10T03:41:48;12.50;99.90
4725;DHT22;2376;53.544;10.226;2023-06-10T03:44:15;12.50;99.90
4725;DHT22;2376;53.544;10.226;2023-06-10T03:46:42;12.40;99.90
4725;DHT22;2376;53.544;10.226;2023-06-10T03:49:09;12.40;99.90
4725;DHT22;2376;53.544;10.226;2023-06-10T03:51:35;12.60;99.90
4725;DHT22;2376;53.544;10.226;2023-06-10T03:54:04;12.70;99.90
4725;DHT22;2376;53.544;10.226;2023-06-10T03:56:31;12.80;99.90
4725;DHT22;2376;53.544;10.226;2023-06-10T03:58:57;12.70;99.90
4725;DHT22;2376;53.544;10.226;2023-06-10T04:01:24;12.70;99.90
4725;DHT22;2376;53.544;10.226;2023-06-10T04:03:51;12.60;99.90
4725;DHT22;2376;53.544;10.226;2023-06-10T04:06:19;12.70;99.90
4725;DHT22;2376;53.544;10.226;2023-06-10T04:08:48;12.60;99.90
4725;DHT22;2376;53.544;10.226;2023-06-10T04:11:16;12.80;99.90
4725;DHT22;2376;53.544;10.226;2023-06-10T04:13:42;12.80;99.90
4725;DHT22;2376;53.544;10.226;2023-06-10T04:16:09;12.90;99.90
4725;DHT22;2376;53.544;10.226;2023-06-10T04:18:36;12.90;99.90
4725;DHT22;2376;53.544;10.226;2023-06-10T04:21:02;13.00;99.90
4725;DHT22;2376;53.544;10.226;2023-06-10T04:23:29;13.10;99.90
4725;DHT22;2376;53.544;10.226;2023-06-10T04:25:56;13.10;99.90
4725;DHT22;2376;53.544;10.226;2023-06-10T04:28:24;13.10;99.90
4725;DHT22;2376;53.544;10.226;2023-06-10T04:30:50;13.00;99.90
4725;DHT22;2376;53.544;10.226;2023-06-10T04:33:17;13.10;99.90
4725;DHT22;2376;53.544;10.226;2023-06-10T04:35:43;13.10;99.90
4725;DHT22;2376;53.544;10.226;2023-06-10T04:38:12;13.10;99.90
4725;DHT22;2376;53.544;10.226;2023-06-10T04:40:39;13.30;99.90
4725;DHT22;2376;53.544;10.226;2023-06-10T04:43:06;13.30;99.90
4725;DHT22;2376;53.544;10.226;2023-06-10T04:45:34;13.40;99.90
4725;DHT22;2376;53.544;10.226;2023-06-10T04:48:01;13.40;99.90
4725;DHT22;2376;53.544;10.226;2023-06-10T04:50:28;13.40;99.90
4725;DHT22;2376;53.544;10.226;2023-06-10T04:52:55;13.50;99.90
4725;DHT22;2376;53.544;10.226;2023-06-10T04:55:22;13.50;99.90
4725;DHT22;2376;53.544;10.226;2023-06-10T04:57:49;13.50;99.90
4725;DHT22;2376;53.544;10.226;2023-06-10T05:00:17;13.60;99.90
4725;DHT22;2376;53.544;10.226;2023-06-10T05:02:45;13.60;99.90
4725;DHT22;2376;53.544;10.226;2023-06-10T05:05:15;13.80;99.90
4725;DHT22;2376;53.544;10.226;2023-06-10T05:07:41;13.90;99.90
4725;DHT22;2376;53.544;10.226;2023-06-10T05:10:09;14.00;99.90
4725;DHT22;2376;53.544;10.226;2023-06-10T05:12:37;14.20;99.90
4725;DHT22;2376;53.544;10.226;2023-06-10T05:15:05;14.30;99.90
4725;DHT22;2376;53.544;10.226;2023-06-10T05:17:32;14.30;99.90
4725;DHT22;2376;53.544;10.226;2023-06-10T05:20:01;14.20;99.90
4725;DHT22;2376;53.544;10.226;2023-06-10T05:22:28;14.20;99.90
4725;DHT22;2376;53.544;10.226;2023-06-10T05:24:54;14.10;99.90
4725;DHT22;2376;53.544;10.226;2023-06-10T05:27:21;14.20;99.90
4725;DHT22;2376;53.544;10.226;2023-06-10T05:29:48;14.30;99.90
4725;DHT22;2376;53.544;10.226;2023-06-10T05:32:15;14.30;99.90
4725;DHT22;2376;53.544;10.226;2023-06-10T05:34:41;14.40;99.90
4725;DHT22;2376;53.544;10.226;2023-06-10T05:37:09;14.50;99.90
4725;DHT22;2376;53.544;10.226;2023-06-10T05:39:36;14.60;99.90
4725;DHT22;2376;53.544;10.226;2023-06-10T05:42:04;14.70;99.90
4725;DHT22;2376;53.544;10.226;2023-06-10T05:44:32;14.70;99.90
4725;DHT22;2376;53.544;10.226;2023-06-10T05:46:58;14.80;99.90
4725;DHT22;2376;53.544;10.226;2023-06-10T05:49:25;14.80;99.90
4725;DHT22;2376;53.544;10.226;2023-06-10T05:51:52;14.90;99.90
4725;DHT22;2376;53.544;10.226;2023-06-10T05:54:20;14.80;99.90
4725;DHT22;2376;53.544;10.226;2023-06-10T05:56:46;14.80;99.90
4725;DHT22;2376;53.544;10.226;2023-06-10T05:59:13;14.80;99.90
4725;DHT22;2376;53.544;10.226;2023-06-10T06:01:40;14.90;99.90
4725;DHT22;2376;53.544;10.226;2023-06-10T06:04:06;15.00;99.90
4725;DHT22;2376;53.544;10.226;2023-06-10T06:06:34;15.10;99.90
4725;DHT22;2376;53.544;10.226;2023-06-10T06:09:01;15.20;99.90
4725;DHT22;2376;53.544;10.226;2023-06-10T06:11:29;15.30;99.90
4725;DHT22;2376;53.544;10.226;2023-06-10T06:13:56;15.30;99.90
4725;DHT22;2376;53.544;10.226;2023-06-10T06:16:23;15.20;99.90
4725;DHT22;2376;53.544;10.226;2023-06-10T06:18:49;15.30;99.90
4725;DHT22;2376;53.544;10.226;2023-06-10T06:21:16;15.30;99.90
4725;DHT22;2376;53.544;10.226;2023-06-10T06:23:43;15.20;99.90
4725;DHT22;2376;53.544;10.226;2023-06-10T06:26:09;15.30;99.90
4725;DHT22;2376;53.544;10.226;2023-06-10T06:28:37;15.40;99.90
4725;DHT22;2376;53.544;10.226;2023-06-10T06:31:04;15.50;99.90
4725;DHT22;2376;53.544;10.226;2023-06-10T06:33:31;15.60;99.90
4725;DHT22;2376;53.544;10.226;2023-06-10T06:35:57;15.60;99.90
4725;DHT22;2376;53.544;10.226;2023-06-10T06:38:25;15.70;99.90
4725;DHT22;2376;53.544;10.226;2023-06-10T06:40:52;15.90;99.90
4725;DHT22;2376;53.544;10.226;2023-06-10T06:43:19;16.00;99.90
4725;DHT22;2376;53.544;10.226;2023-06-10T06:45:47;16.10;99.90
4725;DHT22;2376;53.544;10.226;2023-06-10T06:48:14;16.10;99.90
4725;DHT22;2376;53.544;10.226;2023-06-10T06:50:41;16.20;99.90
4725;DHT22;2376;53.544;10.226;2023-06-10T06:53:08;16.20;99.90
4725;DHT22;2376;53.544;10.226;2023-06-10T06:55:34;16.40;99.90
4725;DHT22;2376;53.544;10.226;2023-06-10T06:58:01;16.30;99.90
4725;DHT22;2376;53.544;10.226;2023-06-10T07:00:29;16.50;99.90
4725;DHT22;2376;53.544;10.226;2023-06-10T07:02:57;16.50;99.90
4725;DHT22;2376;53.544;10.226;2023-06-10T07:05:24;16.50;99.90
4725;DHT22;2376;53.544;10.226;2023-06-10T07:07:52;16.60;99.90
4725;DHT22;2376;53.544;10.226;2023-06-10T07:10:20;16.80;99.90
4725;DHT22;2376;53.544;10.226;2023-06-10T07:12:47;16.90;99.90
4725;DHT22;2376;53.544;10.226;2023-06-10T07:15:14;16.90;99.90
4725;DHT22;2376;53.544;10.226;2023-06-10T07:17:40;17.10;99.90
4725;DHT22;2376;53.544;10.226;2023-06-10T07:20:09;17.20;99.90
4725;DHT22;2376;53.544;10.226;2023-06-10T07:22:36;17.20;99.90
4725;DHT22;2376;53.544;10.226;2023-06-10T07:25:04;17.40;99.90
4725;DHT22;2376;53.544;10.226;2023-06-10T07:27:31;17.40;99.90
4725;DHT22;2376;53.544;10.226;2023-06-10T07:29:58;17.40;99.90
4725;DHT22;2376;53.544;10.226;2023-06-10T07:32:26;17.60;99.90
4725;DHT22;2376;53.544;10.226;2023-06-10T07:34:53;17.70;99.90
4725;DHT22;2376;53.544;10.226;2023-06-10T07:37:21;17.70;99.90
4725;DHT22;2376;53.544;10.226;2023-06-10T07:39:47;17.80;99.90
4725;DHT22;2376;53.544;10.226;2023-06-10T07:42:14;17.80;99.90
4725;DHT22;2376;53.544;10.226;2023-06-10T07:44:41;17.90;99.90
4725;DHT22;2376;53.544;10.226;2023-06-10T07:47:07;18.00;99.90
4725;DHT22;2376;53.544;10.226;2023-06-10T07:49:34;18.10;99.90
4725;DHT22;2376;53.544;10.226;2023-06-10T07:52:01;18.20;99.90
4725;DHT22;2376;53.544;10.226;2023-06-10T07:54:29;18.50;99.90
4725;DHT22;2376;53.544;10.226;2023-06-10T07:56:55;18.70;99.90
4725;DHT22;2376;53.544;10.226;2023-06-10T07:59:22;18.70;99.90
4725;DHT22;2376;53.544;10.226;2023-06-10T08:01:50;18.70;99.90
4725;DHT22;2376;53.544;10.226;2023-06-10T08:04:17;19.00;99.90
4725;DHT22;2376;53.544;10.226;2023-06-10T08:06:43;19.00;99.90
4725;DHT22;2376;53.544;10.226;2023-06-10T08:09:10;19.10;99.90
4725;DHT22;2376;53.544;10.226;2023-06-10T08:11:38;19.20;99.90
4725;DHT22;2376;53.544;10.226;2023-06-10T08:14:04;19.50;99.90
4725;DHT22;2376;53.544;10.226;2023-06-10T08:16:31;19.60;99.90
4725;DHT22;2376;53.544;10.226;2023-06-10T08:18:58;19.70;99.90
4725;DHT22;2376;53.544;10.226;2023-06-10T08:21:24;19.70;99.90
4725;DHT22;2376;53.544;10.226;2023-06-10T08:23:53;19.90;99.90
4725;DHT22;2376;53.544;10.226;2023-06-10T08:26:20;19.80;99.90
4725;DHT22;2376;53.544;10.226;2023-06-10T08:28:48;19.70;99.90
4725;DHT22;2376;53.544;10.226;2023-06-10T08:31:15;20.00;99.90
4725;DHT22;2376;53.544;10.226;2023-06-10T08:33:42;20.10;99.90
4725;DHT22;2376;53.544;10.226;2023-06-10T08:36:08;20.20;99.90
4725;DHT22;2376;53.544;10.226;2023-06-10T08:38:35;20.50;99.90
4725;DHT22;2376;53.544;10.226;2023-06-10T08:41:05;20.40;99.90
4725;DHT22;2376;53.544;10.226;2023-06-10T08:43:34;20.60;99.90
4725;DHT22;2376;53.544;10.226;2023-06-10T08:46:08;20.40;99.90
4725;DHT22;2376;53.544;10.226;2023-06-10T08:48:38;20.40;99.90
4725;DHT22;2376;53.544;10.226;2023-06-10T08:51:07;20.40;99.90
4725;DHT22;2376;53.544;10.226;2023-06-10T08:53:38;20.70;99.90
4725;DHT22;2376;53.544;10.226;2023-06-10T08:56:08;21.00;99.90
4725;DHT22;2376;53.544;10.226;2023-06-10T08:58:36;21.30;99.90
4725;DHT22;2376;53.544;10.226;2023-06-10T09:01:08;21.30;99.90
4725;DHT22;2376;53.544;10.226;2023-06-10T09:03:37;21.30;99.90
4725;DHT22;2376;53.544;10.226;2023-06-10T09:06:05;21.50;99.90
4725;DHT22;2376;53.544;10.226;2023-06-10T09:08:33;21.50;99.90
4725;DHT22;2376;53.544;10.226;2023-06-10T09:11:00;21.40;99.90
4725;DHT22;2376;53.544;10.226;2023-06-10T09:13:26;21.50;99.90
4725;DHT22;2376;53.544;10.226;2023-06-10T09:15:53;21.50;99.90
4725;DHT22;2376;53.544;10.226;2023-06-10T09:18:23;21.50;99.90
4725;DHT22;2376;53.544;10.226;2023-06-10T09:20:49;21.60;99.90
4725;DHT22;2376;53.544;10.226;2023-06-10T09:23:16;21.70;99.90
4725;DHT22;2376;53.544;10.226;2023-06-10T09:25:43;21.80;99.90
4725;DHT22;2376;53.544;10.226;2023-06-10T09:28:14;21.80;99.90
4725;DHT22;2376;53.544;10.226;2023-06-10T09:30:41;22.00;99.90
4725;DHT22;2376;53.544;10.226;2023-06-10T09:33:10;22.10;99.90
4725;DHT22;2376;53.544;10.226;2023-06-10T09:35:45;22.00;99.90
4725;DHT22;2376;53.544;10.226;2023-06-10T09:38:14;22.40;99.90
4725;DHT22;2376;53.544;10.226;2023-06-10T09:40:48;22.60;99.90
4725;DHT22;2376;53.544;10.226;2023-06-10T09:43:16;22.70;99.90
4725;DHT22;2376;53.544;10.226;2023-06-10T09:45:43;22.80;99.90
4725;DHT22;2376;53.544;10.226;2023-06-10T09:48:10;22.70;99.90
4725;DHT22;2376;53.544;10.226;2023-06-10T09:50:43;22.70;99.90
4725;DHT22;2376;53.544;10.226;2023-06-10T09:53:10;22.90;99.90
4725;DHT22;2376;53.544;10.226;2023-06-10T09:55:37;23.20;99.90
4725;DHT22;2376;53.544;10.226;2023-06-10T09:58:04;23.30;99.90
4725;DHT22;2376;53.544;10.226;2023-06-10T10:00:32;23.40;99.90
4725;DHT22;2376;53.544;10.226;2023-06-10T10:02:59;23.60;99.90
4725;DHT22;2376;53.544;10.226;2023-06-10T10:05:27;23.70;99.90
4725;DHT22;2376;53.544;10.226;2023-06-10T10:07:56;23.70;99.90
4725;DHT22;2376;53.544;10.226;2023-06-10T10:10:23;23.50;99.90
4725;DHT22;2376;53.544;10.226;2023-06-10T10:12:53;23.40;99.90
4725;DHT22;2376;53.544;10.226;2023-06-10T10:15:21;23.60;99.90
4725;DHT22;2376;53.544;10.226;2023-06-10T10:17:52;23.60;99.90
4725;DHT22;2376;53.544;10.226;2023-06-10T10:20:21;23.70;99.90
4725;DHT22;2376;53.544;10.226;2023-06-10T10:22:51;24.10;99.90
4725;DHT22;2376;53.544;10.226;2023-06-10T10:25:23;24.20;99.90
4725;DHT22;2376;53.544;10.226;2023-06-10T10:27:52;24.50;99.90
4725;DHT22;2376;53.544;10.226;2023-06-10T10:30:21;24.40;99.90
4725;DHT22;2376;53.544;10.226;2023-06-10T10:32:55;24.30;99.90
4725;DHT22;2376;53.544;10.226;2023-06-10T10:35:23;24.30;99.90
4725;DHT22;2376;53.544;10.226;2023-06-10T10:37:52;24.40;99.90
4725;DHT22;2376;53.544;10.226;2023-06-10T10:40:21;24.80;99.90
4725;DHT22;2376;53.544;10.226;2023-06-10T10:42:48;25.10;99.90
4725;DHT22;2376;53.544;10.226;2023-06-10T10:45:15;25.00;99.90
4725;DHT22;2376;53.544;10.226;2023-06-10T10:47:44;24.90;99.90
4725;DHT22;2376;53.544;10.226;2023-06-10T10:50:14;25.00;99.60
4725;DHT22;2376;53.544;10.226;2023-06-10T10:52:55;25.20;99.90
4725;DHT22;2376;53.544;10.226;2023-06-10T10:55:24;25.40;97.30
4725;DHT22;2376;53.544;10.226;2023-06-10T10:57:55;25.50;98.50
4725;DHT22;2376;53.544;10.226;2023-06-10T11:00:29;25.70;96.10
4725;DHT22;2376;53.544;10.226;2023-06-10T11:03:03;25.60;94.90
4725;DHT22;2376;53.544;10.226;2023-06-10T11:05:35;25.60;94.00
4725;DHT22;2376;53.544;10.226;2023-06-10T11:08:03;25.60;97.10
4725;DHT22;2376;53.544;10.226;2023-06-10T11:10:32;25.80;95.40
4725;DHT22;2376;53.544;10.226;2023-06-10T11:12:59;25.80;94.50
4725;DHT22;2376;53.544;10.226;2023-06-10T11:15:27;25.60;94.70
4725;DHT22;2376;53.544;10.226;2023-06-10T11:18:15;25.70;97.50
4725;DHT22;2376;53.544;10.226;2023-06-10T11:20:52;26.00;95.30
4725;DHT22;2376;53.544;10.226;2023-06-10T11:23:40;26.20;95.10
4725;DHT22;2376;53.544;10.226;2023-06-10T11:26:29;26.20;93.60
4725;DHT22;2376;53.544;10.226;2023-06-10T11:29:07;25.90;93.10
4725;DHT22;2376;53.544;10.226;2023-06-10T11:31:40;25.90;96.00
4725;DHT22;2376;53.544;10.226;2023-06-10T11:34:07;26.00;92.90
4725;DHT22;2376;53.544;10.226;2023-06-10T11:36:39;26.00;93.50
4725;DHT22;2376;53.544;10.226;2023-06-10T11:39:11;26.00;94.60
4725;DHT22;2376;53.544;10.226;2023-06-10T11:41:39;26.10;92.10
4725;DHT22;2376;53.544;10.226;2023-06-10T11:44:11;25.80;93.80
4725;DHT22;2376;53.544;10.226;2023-06-10T11:46:38;25.90;93.30
4725;DHT22;2376;53.544;10.226;2023-06-10T11:49:06;25.80;93.70
4725;DHT22;2376;53.544;10.226;2023-06-10T11:51:34;25.90;93.70
4725;DHT22;2376;53.544;10.226;2023-06-10T11:54:01;26.30;93.90
4725;DHT22;2376;53.544;10.226;2023-06-10T11:56:29;26.00;92.40
4725;DHT22;2376;53.544;10.226;2023-06-10T11:58:59;25.90;93.60
4725;DHT22;2376;53.544;10.226;2023-06-10T12:01:30;26.00;93.00
4725;DHT22;2376;53.544;10.226;2023-06-10T12:04:00;26.00;93.70
4725;DHT22;2376;53.544;10.226;2023-06-10T12:06:27;26.10;92.60
4725;DHT22;2376;53.544;10.226;2023-06-10T12:09:03;26.40;90.20
4725;DHT22;2376;53.544;10.226;2023-06-10T12:11:30;26.80;91.90
4725;DHT22;2376;53.544;10.226;2023-06-10T12:13:58;27.10;88.90
4725;DHT22;2376;53.544;10.226;2023-06-10T12:16:25;27.00;82.00
4725;DHT22;2376;53.544;10.226;2023-06-10T12:19:01;26.80;83.00
4725;DHT22;2376;53.544;10.226;2023-06-10T12:21:29;26.90;81.60
4725;DHT22;2376;53.544;10.226;2023-06-10T12:24:00;27.10;86.30
4725;DHT22;2376;53.544;10.226;2023-06-10T12:26:37;27.40;80.30
4725;DHT22;2376;53.544;10.226;2023-06-10T12:29:22;27.50;75.50
4725;DHT22;2376;53.544;10.226;2023-06-10T12:32:00;27.60;78.10
4725;DHT22;2376;53.544;10.226;2023-06-10T12:34:33;27.40;74.90
4725;DHT22;2376;53.544;10.226;2023-06-10T12:37:01;27.50;75.30
4725;DHT22;2376;53.544;10.226;2023-06-10T12:39:28;27.30;72.10
4725;DHT22;2376;53.544;10.226;2023-06-10T12:41:55;27.50;73.00
4725;DHT22;2376;53.544;10.226;2023-06-10T12:44:39;27.50;70.80
4725;DHT22;2376;53.544;10.226;2023-06-10T12:47:09;27.40;70.20
4725;DHT22;2376;53.544;10.226;2023-06-10T12:49:38;27.10;70.80
4725;DHT22;2376;53.544;10.226;2023-06-10T12:52:05;27.10;70.00
4725;DHT22;2376;53.544;10.226;2023-06-10T12:54:32;27.10;72.10
4725;DHT22;2376;53.544;10.226;2023-06-10T12:57:00;27.60;72.80
4725;DHT22;2376;53.544;10.226;2023-06-10T12:59:26;27.90;66.80
4725;DHT22;2376;53.544;10.226;2023-06-10T13:01:55;27.80;64.10
4725;DHT22;2376;53.544;10.226;2023-06-10T13:04:22;27.70;64.00
4725;DHT22;2376;53.544;10.226;2023-06-10T13:06:48;27.50;66.60
4725;DHT22;2376;53.544;10.226;2023-06-10T13:09:15;27.60;65.60
4725;DHT22;2376;53.544;10.226;2023-06-10T13:11:42;27.70;65.60
4725;DHT22;2376;53.544;10.226;2023-06-10T13:14:10;27.80;64.60
4725;DHT22;2376;53.544;10.226;2023-06-10T13:16:37;27.70;66.80
4725;DHT22;2376;53.544;10.226;2023-06-10T13:19:06;28.00;68.50
4725;DHT22;2376;53.544;10.226;2023-06-10T13:21:33;28.10;65.30
4725;DHT22;2376;53.544;10.226;2023-06-10T13:24:00;28.30;64.30
4725;DHT22;2376;53.544;10.226;2023-06-10T13:26:27;28.30;64.30
4725;DHT22;2376;53.544;10.226;2023-06-10T13:28:53;28.20;66.70
4725;DHT22;2376;53.544;10.226;2023-06-10T13:31:20;28.00;70.30
4725;DHT22;2376;53.544;10.226;2023-06-10T13:33:47;27.90;72.40
4725;DHT22;2376;53.544;10.226;2023-06-10T13:36:15;27.90;73.60
4725;DHT22;2376;53.544;10.226;2023-06-10T13:38:41;27.90;73.60
4725;DHT22;2376;53.544;10.226;2023-06-10T13:41:08;27.50;76.10
4725;DHT22;2376;53.544;10.226;2023-06-10T13:43:35;27.40;77.80
4725;DHT22;2376;53.544;10.226;2023-06-10T13:46:02;27.80;78.30
4725;DHT22;2376;53.544;10.226;2023-06-10T13:48:28;27.60;76.60
4725;DHT22;2376;53.544;10.226;2023-06-10T13:50:56;27.20;76.00
4725;DHT22;2376;53.544;10.226;2023-06-10T13:53:24;27.20;81.20
4725;DHT22;2376;53.544;10.226;2023-06-10T13:55:51;27.30;80.30
4725;DHT22;2376;53.544;10.226;2023-06-10T13:58:17;27.40;81.10
4725;DHT22;2376;53.544;10.226;2023-06-10T14:00:44;27.50;80.70
4725;DHT22;2376;53.544;10.226;2023-06-10T14:03:11;27.50;81.70
4725;DHT22;2376;53.544;10.226;2023-06-10T14:05:37;27.60;79.90
4725;DHT22;2376;53.544;10.226;2023-06-10T14:08:04;27.30;82.00
4725;DHT22;2376;53.544;10.226;2023-06-10T14:10:32;27.10;83.20
4725;DHT22;2376;53.544;10.226;2023-06-10T14:12:59;27.10;83.20
4725;DHT22;2376;53.544;10.226;2023-06-10T14:15:26;27.20;81.30
4725;DHT22;2376;53.544;10.226;2023-06-10T14:17:53;27.20;82.10
4725;DHT22;2376;53.544;10.226;2023-06-10T14:20:20;27.30;82.50
4725;DHT22;2376;53.544;10.226;2023-06-10T14:22:47;27.20;80.60
4725;DHT22;2376;53.544;10.226;2023-06-10T14:25:13;27.20;83.60
4725;DHT22;2376;53.544;10.226;2023-06-10T14:27:41;27.20;83.00
4725;DHT22;2376;53.544;10.226;2023-06-10T14:30:08;27.00;84.80
4725;DHT22;2376;53.544;10.226;2023-06-10T14:32:35;26.90;88.60
4725;DHT22;2376;53.544;10.226;2023-06-10T14:35:03;26.90;87.70
4725;DHT22;2376;53.544;10.226;2023-06-10T14:37:29;27.10;85.80
4725;DHT22;2376;53.544;10.226;2023-06-10T14:39:56;27.40;83.50
4725;DHT22;2376;53.544;10.226;2023-06-10T14:42:23;27.70;77.30
4725;DHT22;2376;53.544;10.226;2023-06-10T14:44:51;27.90;79.80
4725;DHT22;2376;53.544;10.226;2023-06-10T14:47:18;27.70;78.20
4725;DHT22;2376;53.544;10.226;2023-06-10T14:49:44;27.80;78.70
4725;DHT22;2376;53.544;10.226;2023-06-10T14:52:11;28.00;77.80
4725;DHT22;2376;53.544;10.226;2023-06-10T14:54:37;28.00;76.30
4725;DHT22;2376;53.544;10.226;2023-06-10T14:57:05;28.00;76.40
4725;DHT22;2376;53.544;10.226;2023-06-10T14:59:32;27.90;75.00
4725;DHT22;2376;53.544;10.226;2023-06-10T15:02:00;27.70;75.50
4725;DHT22;2376;53.544;10.226;2023-06-10T15:04:27;27.70;75.30
4725;DHT22;2376;53.544;10.226;2023-06-10T15:06:54;27.60;75.10
4725;DHT22;2376;53.544;10.226;2023-06-10T15:09:21;27.70;74.10
4725;DHT22;2376;53.544;10.226;2023-06-10T15:11:48;27.70;74.30
4725;DHT22;2376;53.544;10.226;2023-06-10T15:14:15;27.80;72.80
4725;DHT22;2376;53.544;10.226;2023-06-10T15:16:42;27.80;72.60
4725;DHT22;2376;53.544;10.226;2023-06-10T15:19:10;28.10;72.20
4725;DHT22;2376;53.544;10.226;2023-06-10T15:21:37;28.40;71.20
4725;DHT22;2376;53.544;10.226;2023-06-10T15:24:04;28.10;70.80
4725;DHT22;2376;53.544;10.226;2023-06-10T15:26:31;27.90;72.50
4725;DHT22;2376;53.544;10.226;2023-06-10T15:28:57;27.80;73.00
4725;DHT22;2376;53.544;10.226;2023-06-10T15:31:29;27.80;72.50
4725;DHT22;2376;53.544;10.226;2023-06-10T15:33:55;27.60;72.80
4725;DHT22;2376;53.544;10.226;2023-06-10T15:36:23;27.40;73.70
4725;DHT22;2376;53.544;10.226;2023-06-10T15:38:50;27.30;73.70
4725;DHT22;2376;53.544;10.226;2023-06-10T15:41:17;27.50;74.00
4725;DHT22;2376;53.544;10.226;2023-06-10T15:43:43;27.60;72.80
4725;DHT22;2376;53.544;10.226;2023-06-10T15:46:10;27.80;72.40
4725;DHT22;2376;53.544;10.226;2023-06-10T15:48:36;27.80;73.00
4725;DHT22;2376;53.544;10.226;2023-06-10T15:51:03;27.90;71.60